LFPM 061600Z AUTO 02007KT CAVOK 07/01 Q1037

Les avions qui composent notre flotte

Beechcraft 33 Bonanza

Le haut de gamme de l'aviation légère
IFR, Pas variable, Train rentrant

F-BRIZ


F-BRIZ Planche